Time;durP1;ratioP1;P1;durP2;ratioP2;P2;SDS_P1;SDS_P2;PMS_P1;PMS_P2;Temp;Humidity;BMP_temperature;BMP_pressure;BME280_temperature;BME280_humidity;BME280_pressure;Samples;Min_cycle;Max_cycle;Signal;HPM_P1;HPM_P2
2022/08/29 00:01:55;;;;;;;6.35;3.10;;;;;;;20.59;83.06;100185.63;5034196;28;20034;-80
2022/08/29 00:04:20;;;;;;;6.85;2.85;;;;;;;20.56;82.71;100180.44;5062030;28;20008;-82
2022/08/29 00:06:46;;;;;;;5.90;3.22;;;;;;;20.50;81.84;100178.19;5057059;28;20099;-82
2022/08/29 00:09:11;;;;;;;8.38;2.90;;;;;;;20.37;80.34;100163.81;5042178;28;20469;-83
2022/08/29 00:11:37;;;;;;;5.82;3.08;;;;;;;20.44;79.55;100186.75;5056419;28;20087;-82
2022/08/29 00:14:02;;;;;;;6.28;2.88;;;;;;;20.38;79.71;100179.03;5040669;28;20017;-81
2022/08/29 00:16:28;;;;;;;8.68;3.45;;;;;;;20.20;79.32;100150.59;5049169;28;20038;-81
2022/08/29 00:18:53;;;;;;;5.03;3.05;;;;;;;20.25;77.74;100185.41;5057503;28;20035;-81
2022/08/29 00:21:19;;;;;;;6.65;2.90;;;;;;;20.18;79.13;100178.72;5052802;28;20493;-79
2022/08/29 00:23:44;;;;;;;4.93;2.85;;;;;;;20.12;77.95;100179.09;5054562;28;20480;-83
2022/08/29 00:26:10;;;;;;;6.75;2.95;;;;;;;20.04;78.79;100174.22;5051197;28;20028;-81
2022/08/29 00:28:36;;;;;;;5.10;2.50;;;;;;;20.05;78.20;100181.34;5051508;28;20128;-78
2022/08/29 00:31:02;;;;;;;6.38;2.88;;;;;;;19.99;78.64;100189.00;5051967;28;20100;-78
2022/08/29 00:33:28;;;;;;;6.90;2.72;;;;;;;19.92;77.69;100177.75;5051727;28;20021;-78
2022/08/29 00:35:54;;;;;;;6.60;2.97;;;;;;;19.90;78.67;100178.84;5050687;28;20039;-78
2022/08/29 00:38:19;;;;;;;5.40;2.53;;;;;;;19.83;78.83;100173.00;5051533;28;20066;-82
2022/08/29 00:40:51;;;;;;;8.65;3.13;;;;;;;19.78;79.50;100183.25;5051808;28;20384;-80
2022/08/29 00:43:21;;;;;;;7.95;2.60;;;;;;;19.76;79.36;100177.06;5050213;28;20029;-79
2022/08/29 00:45:58;;;;;;;7.65;3.00;;;;;;;19.71;79.19;100179.22;5051081;28;20468;-80
2022/08/29 00:48:24;;;;;;;9.00;3.00;;;;;;;19.60;78.84;100179.91;5051194;28;20021;-80
2022/08/29 00:51:02;;;;;;;7.75;2.53;;;;;;;19.65;79.16;100190.44;5049703;28;20330;-78
2022/08/29 00:53:33;;;;;;;6.13;2.70;;;;;;;19.61;80.44;100183.50;5049412;28;20045;-78
2022/08/29 00:56:01;;;;;;;7.00;3.28;;;;;;;19.60;80.66;100195.28;5050217;28;20112;-77
2022/08/29 00:58:34;;;;;;;6.93;3.80;;;;;;;19.49;80.00;100189.69;5049295;28;20024;-79
2022/08/29 01:01:00;;;;;;;6.70;2.72;;;;;;;19.48;81.07;100198.78;5050489;28;20021;-79
2022/08/29 01:03:27;;;;;;;5.50;2.50;;;;;;;19.43;81.96;100198.22;5042307;28;20041;-80
2022/08/29 01:05:53;;;;;;;6.57;3.35;;;;;;;19.35;82.05;100196.03;5068049;23;20923;-81
2022/08/29 01:08:18;;;;;;;7.82;2.70;;;;;;;19.23;82.28;100190.50;5069450;28;20062;-81
2022/08/29 01:13:35;;;;;;;5.00;2.53;;;;;;;19.27;81.95;100200.16;5070944;28;20070;-81
2022/08/29 01:16:02;;;;;;;6.90;2.78;;;;;;;19.19;81.96;100202.47;5070785;28;20483;-81
2022/08/29 01:18:34;;;;;;;10.63;3.15;;;;;;;19.08;81.38;100194.19;5070666;28;20020;-81
2022/08/29 01:20:59;;;;;;;7.70;2.42;;;;;;;19.14;82.00;100207.31;5070809;28;20119;-81
2022/08/29 01:23:47;;;;;;;8.05;2.97;;;;;;;19.15;80.91;100204.50;5071076;28;20111;-81
2022/08/29 01:26:12;;;;;;;6.05;2.60;;;;;;;19.10;81.55;100216.53;5071191;28;20031;-81
2022/08/29 01:28:46;;;;;;;4.28;2.47;;;;;;;19.08;82.00;100218.47;5071167;28;20100;-81
2022/08/29 01:31:22;;;;;;;;;;;;;;;19.00;82.11;100218.97;5071607;28;20101;-80
2022/08/29 01:33:55;;;;;;;7.47;2.55;;;;;;;19.00;82.77;100212.69;5070650;28;20506;-80
2022/08/29 01:36:38;;;;;;;5.28;2.60;;;;;;;18.94;82.54;100207.72;5070883;28;20086;-81
2022/08/29 01:39:05;;;;;;;9.00;2.42;;;;;;;18.88;81.82;100210.81;5069728;28;20036;-80
2022/08/29 01:41:31;;;;;;;6.40;2.35;;;;;;;18.79;81.82;100197.91;5071126;28;20029;-81
2022/08/29 01:43:57;;;;;;;5.60;2.35;;;;;;;18.83;81.72;100212.94;5071024;28;20056;-81
2022/08/29 01:46:28;;;;;;;8.73;2.67;;;;;;;18.82;80.84;100216.56;5073482;28;20803;-80
2022/08/29 01:48:54;;;;;;;5.57;2.42;;;;;;;18.75;81.29;100213.38;5074806;28;20040;-81
2022/08/29 01:51:19;;;;;;;4.85;2.10;;;;;;;18.67;81.12;100204.91;5073398;28;20028;-80
2022/08/29 01:53:45;;;;;;;5.57;2.70;;;;;;;18.69;82.33;100202.13;5073449;28;20543;-80
2022/08/29 01:56:23;;;;;;;7.72;2.45;;;;;;;18.69;82.97;100213.78;5061616;28;20025;-81
2022/08/29 01:58:51;;;;;;;6.78;2.42;;;;;;;18.53;81.74;100193.28;5063534;28;20500;-81
2022/08/29 02:01:21;;;;;;;8.82;2.70;;;;;;;18.62;82.86;100212.44;5073358;28;20074;-81
2022/08/29 02:03:46;;;;;;;7.28;2.72;;;;;;;18.54;82.41;100203.09;5074763;28;20032;-81
2022/08/29 02:06:12;;;;;;;6.15;2.58;;;;;;;18.46;82.73;100200.88;5074762;28;20098;-80
2022/08/29 02:08:40;;;;;;;6.63;2.75;;;;;;;18.48;83.34;100214.25;5072880;28;20048;-81
2022/08/29 02:11:09;;;;;;;7.00;2.83;;;;;;;18.46;82.73;100216.16;5074072;28;20083;-80
2022/08/29 02:13:39;;;;;;;6.82;3.03;;;;;;;18.37;83.17;100210.34;5072522;28;20028;-80
2022/08/29 02:16:05;;;;;;;5.28;2.40;;;;;;;18.34;83.17;100210.53;5074755;28;20029;-80
2022/08/29 02:18:31;;;;;;;7.80;2.65;;;;;;;18.35;82.67;100214.97;5074127;28;20044;-81
2022/08/29 02:20:57;;;;;;;5.43;2.35;;;;;;;18.26;83.17;100210.16;5072097;28;20028;-80
2022/08/29 02:23:23;;;;;;;5.00;2.45;;;;;;;18.29;83.94;100231.50;5072788;28;20086;-80
2022/08/29 02:25:48;;;;;;;8.30;2.58;;;;;;;18.21;83.28;100222.16;5073157;28;20360;-80
2022/08/29 02:28:16;;;;;;;9.05;2.42;;;;;;;18.07;83.52;100206.81;5070549;28;20024;-80
2022/08/29 02:30:45;;;;;;;6.50;2.58;;;;;;;18.14;84.32;100216.25;5073200;28;20056;-80
2022/08/29 02:33:12;;;;;;;5.78;2.33;;;;;;;18.18;83.71;100216.94;5073081;28;20031;-80
2022/08/29 02:35:38;;;;;;;6.32;2.28;;;;;;;18.17;82.74;100218.75;5072800;28;20533;-80
2022/08/29 02:38:04;;;;;;;4.35;1.88;;;;;;;18.07;82.33;100214.88;5061337;28;20082;-81
2022/08/29 02:40:30;;;;;;;5.85;2.30;;;;;;;18.14;82.26;100223.47;5069137;28;20041;-81
2022/08/29 02:42:55;;;;;;;3.88;2.03;;;;;;;18.02;82.32;100208.06;5056661;28;20021;-81
2022/08/29 02:45:22;;;;;;;6.68;2.13;;;;;;;18.04;82.62;100204.31;5057558;28;20025;-81
2022/08/29 02:47:48;;;;;;;9.10;2.20;;;;;;;18.02;82.53;100222.38;5074057;28;20039;-81
2022/08/29 02:50:15;;;;;;;4.85;2.10;;;;;;;18.05;84.04;100222.22;5073947;28;20056;-80
2022/08/29 02:52:42;;;;;;;6.80;2.17;;;;;;;18.05;84.03;100227.59;5071679;28;20017;-80
2022/08/29 02:55:16;;;;;;;5.63;2.30;;;;;;;17.95;83.91;100215.66;5051668;28;20047;-80
2022/08/29 02:57:42;;;;;;;8.68;2.42;;;;;;;18.02;84.30;100221.53;5050746;28;20082;-80
2022/08/29 03:00:12;;;;;;;5.82;2.40;;;;;;;17.97;84.68;100216.41;5071558;28;20024;-81
2022/08/29 03:02:38;;;;;;;11.27;2.17;;;;;;;18.01;84.32;100215.28;5072099;28;20504;-81
2022/08/29 03:05:05;;;;;;;5.30;2.05;;;;;;;18.02;82.13;100217.00;5071703;28;20028;-81
2022/08/29 03:07:30;;;;;;;6.80;2.30;;;;;;;17.95;82.37;100209.38;5073400;28;20067;-81
2022/08/29 03:09:57;;;;;;;6.28;2.50;;;;;;;17.93;82.25;100212.16;5073595;28;20052;-81
2022/08/29 03:12:23;;;;;;;9.75;2.15;;;;;;;17.95;82.44;100206.69;5073236;28;20077;-81
2022/08/29 03:14:49;;;;;;;10.13;2.55;;;;;;;18.05;81.12;100222.22;5072208;28;20028;-81
2022/08/29 03:17:14;;;;;;;12.65;2.50;;;;;;;18.06;80.91;100217.69;5072232;28;20321;-81
2022/08/29 03:19:39;;;;;;;6.15;2.30;;;;;;;18.05;81.31;100216.84;5071573;28;20436;-80
2022/08/29 03:22:05;;;;;;;6.47;2.05;;;;;;;18.05;81.46;100211.44;5072197;28;20028;-81
2022/08/29 03:24:33;;;;;;;7.47;2.50;;;;;;;17.91;80.48;100192.56;5072193;28;20020;-80
2022/08/29 03:26:58;;;;;;;3.85;1.70;;;;;;;17.98;80.84;100207.38;5070647;28;20111;-81
2022/08/29 03:29:24;;;;;;;4.75;1.98;;;;;;;17.90;80.39;100190.81;5071620;28;20089;-81
2022/08/29 03:31:50;;;;;;;6.43;2.10;;;;;;;17.94;80.59;100188.81;5070105;28;20074;-80
2022/08/29 03:34:15;;;;;;;7.63;2.00;;;;;;;17.94;81.36;100200.44;5071537;28;20476;-79
2022/08/29 03:36:41;;;;;;;5.97;1.77;;;;;;;17.85;81.14;100190.22;5072601;28;20020;-80
2022/08/29 03:39:06;;;;;;;6.03;1.95;;;;;;;17.78;80.08;100188.84;5072490;28;20028;-81
2022/08/29 03:41:33;;;;;;;6.50;2.08;;;;;;;17.82;81.62;100203.88;5071718;28;20089;-80
2022/08/29 03:43:59;;;;;;;4.07;1.65;;;;;;;17.82;81.35;100203.00;5073231;28;20103;-81
2022/08/29 03:46:25;;;;;;;5.93;2.30;;;;;;;17.85;81.97;100206.38;5071642;28;20028;-81
2022/08/29 03:48:51;;;;;;;5.70;1.73;;;;;;;17.69;82.63;100186.69;5071492;28;20025;-81
2022/08/29 03:51:17;;;;;;;4.10;2.00;;;;;;;17.77;82.76;100203.28;5071273;28;20051;-80
2022/08/29 03:53:44;;;;;;;4.32;1.83;;;;;;;17.73;82.84;100201.72;5061633;28;20128;-81
2022/08/29 03:56:10;;;;;;;5.22;1.90;;;;;;;17.69;83.91;100205.53;5052124;28;20061;-81
2022/08/29 03:58:36;;;;;;;4.70;1.67;;;;;;;17.64;84.03;100198.69;5052548;28;20580;-81
2022/08/29 04:01:02;;;;;;;6.93;1.95;;;;;;;17.64;83.50;100215.72;5051967;28;20033;-81
2022/08/29 04:03:28;;;;;;;5.95;2.20;;;;;;;17.61;83.52;100221.25;5051154;28;20100;-81
2022/08/29 04:05:53;;;;;;;4.65;1.70;;;;;;;17.61;83.78;100205.09;5065575;28;20049;-81
2022/08/29 04:08:19;;;;;;;4.18;1.30;;;;;;;17.50;84.06;100195.94;5070226;28;20074;-80
2022/08/29 04:10:44;;;;;;;3.85;1.60;;;;;;;17.48;84.26;100209.47;5071100;28;20506;-81
2022/08/29 04:13:11;;;;;;;4.55;1.92;;;;;;;17.54;84.83;100217.19;5071158;28;20059;-80
2022/08/29 04:15:39;;;;;;;3.95;1.85;;;;;;;17.41;84.39;100191.94;5070847;28;20161;-80
2022/08/29 04:18:06;;;;;;;7.40;2.47;;;;;;;17.41;84.32;100197.31;5070806;28;20391;-81
2022/08/29 04:20:36;;;;;;;5.32;1.50;;;;;;;17.48;84.14;100212.16;5068200;28;20032;-81
2022/08/29 04:23:02;;;;;;;5.70;1.77;;;;;;;17.25;84.52;100168.72;5070865;28;20471;-81
2022/08/29 04:25:34;;;;;;;3.17;1.55;;;;;;;17.30;84.42;100172.84;5071855;28;20028;-81
2022/08/29 04:28:00;;;;;;;5.68;1.40;;;;;;;17.41;84.34;100213.44;5055278;28;20746;-81
2022/08/29 04:30:26;;;;;;;4.53;1.60;;;;;;;17.42;84.12;100209.78;5051723;28;20064;-80
2022/08/29 04:32:52;;;;;;;4.85;1.65;;;;;;;17.38;83.65;100202.84;5060943;28;20016;-80
2022/08/29 04:35:18;;;;;;;8.48;2.30;;;;;;;17.45;83.40;100228.47;5070058;28;20428;-80
2022/08/29 04:37:44;;;;;;;4.97;1.83;;;;;;;17.38;82.74;100210.06;5069674;28;20036;-80
2022/08/29 04:40:14;;;;;;;8.13;2.75;;;;;;;17.49;82.39;100227.34;5071702;28;20023;-81
2022/08/29 04:42:40;;;;;;;2.92;1.60;;;;;;;17.38;82.29;100208.22;5070585;28;20017;-80
2022/08/29 04:45:08;;;;;;;5.05;1.60;;;;;;;17.44;83.25;100215.09;5070032;28;20766;-81
2022/08/29 04:47:35;;;;;;;5.43;1.60;;;;;;;17.45;82.10;100220.41;5062990;28;20163;-81
2022/08/29 04:50:00;;;;;;;6.90;2.10;;;;;;;17.48;81.68;100222.91;5049958;28;20025;-81
2022/08/29 04:52:27;;;;;;;4.30;1.77;;;;;;;17.55;82.32;100237.75;5054973;28;20027;-81
2022/08/29 04:54:54;;;;;;;12.63;1.90;;;;;;;17.63;82.92;100246.25;5051922;28;20021;-81
2022/08/29 04:57:19;;;;;;;6.07;2.10;;;;;;;17.59;82.95;100231.25;5049509;28;20021;-81
2022/08/29 04:59:46;;;;;;;6.30;1.75;;;;;;;17.75;82.24;100250.94;5067664;28;20048;-81
2022/08/29 05:02:12;;;;;;;6.13;1.60;;;;;;;17.83;82.57;100247.78;5069709;28;20036;-81
2022/08/29 05:04:37;;;;;;;7.07;1.60;;;;;;;17.85;82.13;100251.25;5071535;28;20069;-81
2022/08/29 05:07:03;;;;;;;3.60;1.52;;;;;;;17.67;80.12;100209.28;5069793;28;20088;-80
2022/08/29 05:09:29;;;;;;;5.25;1.85;;;;;;;17.88;80.06;100240.31;5070376;28;20030;-81
2022/08/29 05:11:54;;;;;;;3.92;1.58;;;;;;;17.90;79.90;100244.66;5071582;28;20376;-81
2022/08/29 05:14:20;;;;;;;5.05;1.50;;;;;;;17.97;77.71;100246.00;5071576;28;20027;-81
2022/08/29 05:16:47;;;;;;;3.88;1.95;;;;;;;17.98;78.21;100249.56;5071153;28;20052;-82
2022/08/29 05:19:12;;;;;;;5.28;1.88;;;;;;;17.90;78.23;100238.41;5070701;28;20028;-82
2022/08/29 05:21:39;;;;;;;4.47;1.60;;;;;;;18.03;78.13;100255.56;5070181;28;20029;-81
2022/08/29 05:24:10;;;;;;;2.97;1.58;;;;;;;18.13;77.05;100268.38;5071534;28;20040;-82
2022/08/29 05:26:42;;;;;;;4.15;1.70;;;;;;;18.15;77.29;100263.75;5071374;28;20032;-81
2022/08/29 05:29:09;;;;;;;5.65;1.83;;;;;;;18.12;78.38;100250.47;5071532;28;20112;-82
2022/08/29 05:31:37;;;;;;;4.70;1.90;;;;;;;18.38;77.79;100239.00;5070027;28;20411;-82
2022/08/29 05:34:03;;;;;;;3.50;1.40;;;;;;;18.56;76.82;100249.66;5064074;28;20476;-82
2022/08/29 05:36:29;;;;;;;3.33;1.30;;;;;;;18.54;76.19;100238.97;5069549;28;20020;-82
2022/08/29 05:38:55;;;;;;;7.38;1.90;;;;;;;18.44;75.42;100232.41;5071452;28;20500;-81
2022/08/29 05:41:20;;;;;;;7.32;2.28;;;;;;;18.52;75.57;100257.06;5069288;28;20063;-81
2022/08/29 05:43:46;;;;;;;5.50;2.10;;;;;;;18.50;75.06;100255.44;5057331;28;20536;-82
2022/08/29 05:46:11;;;;;;;6.13;1.70;;;;;;;18.58;75.63;100247.75;5057932;28;20032;-82
2022/08/29 05:48:41;;;;;;;2.90;1.30;;;;;;;18.75;75.25;100266.41;5059535;28;20387;-82
2022/08/29 05:51:07;;;;;;;3.17;1.33;;;;;;;18.81;76.03;100256.16;5058086;28;20400;-81
2022/08/29 05:53:33;;;;;;;7.22;1.77;;;;;;;18.94;73.86;100275.09;5055939;28;20361;-82
2022/08/29 05:55:59;;;;;;;3.92;1.65;;;;;;;19.03;73.40;100266.44;5059295;28;20096;-81
2022/08/29 05:58:27;;;;;;;5.95;1.75;;;;;;;19.12;73.08;100273.94;5065208;28;20118;-82
2022/08/29 06:00:52;;;;;;;7.55;2.25;;;;;;;19.23;71.32;100258.81;5069698;28;20028;-81
2022/08/29 06:03:18;;;;;;;4.55;1.95;;;;;;;19.43;71.80;100273.75;5065696;28;20028;-81
2022/08/29 06:05:49;;;;;;;3.58;1.75;;;;;;;19.38;71.94;100267.78;5065064;28;20037;-80
2022/08/29 06:08:15;;;;;;;5.88;1.77;;;;;;;19.44;71.66;100268.25;5060645;28;20029;-81
2022/08/29 06:10:42;;;;;;;6.75;1.90;;;;;;;19.56;70.47;100277.38;5060811;28;20031;-81
2022/08/29 06:13:08;;;;;;;3.53;1.67;;;;;;;19.54;69.41;100266.69;5057826;28;20023;-80
2022/08/29 06:15:33;;;;;;;5.95;1.80;;;;;;;19.63;69.08;100273.31;5044266;28;20461;-81
2022/08/29 06:17:59;;;;;;;8.23;1.88;;;;;;;19.76;68.77;100290.44;5060872;28;20016;-81
2022/08/29 06:20:26;;;;;;;9.07;1.77;;;;;;;19.96;69.01;100292.69;5067079;28;20017;-81
2022/08/29 06:22:51;;;;;;;6.18;1.48;;;;;;;20.09;68.98;100303.53;5068866;28;20078;-82
2022/08/29 06:25:16;;;;;;;3.55;1.35;;;;;;;20.23;68.04;100301.66;5051046;28;20036;-80
2022/08/29 06:27:42;;;;;;;5.53;1.85;;;;;;;20.48;66.79;100301.75;5060545;28;20029;-81
2022/08/29 06:30:08;;;;;;;5.18;1.67;;;;;;;20.71;65.78;100309.13;5069251;28;20027;-80
2022/08/29 06:32:33;;;;;;;5.57;1.73;;;;;;;20.76;65.39;100312.38;5072027;28;20047;-81
2022/08/29 06:34:59;;;;;;;7.10;2.33;;;;;;;20.86;64.41;100316.19;5072442;28;20055;-80
2022/08/29 06:37:24;;;;;;;4.50;1.85;;;;;;;20.88;66.00;100284.50;5073042;28;20628;-80
2022/08/29 06:39:50;;;;;;;5.57;2.33;;;;;;;21.32;66.69;100316.50;5073352;28;20034;-81
2022/08/29 06:42:21;;;;;;;5.85;1.55;;;;;;;21.56;64.93;100313.88;5073988;28;20090;-81
2022/08/29 06:44:47;;;;;;;5.43;1.92;;;;;;;21.74;64.40;100316.13;5074636;28;20025;-81
2022/08/29 06:47:13;;;;;;;5.72;1.92;;;;;;;22.02;63.52;100317.66;5073293;28;20032;-80
2022/08/29 06:49:39;;;;;;;7.80;1.58;;;;;;;22.10;62.98;100304.41;5069019;28;20395;-81
2022/08/29 06:52:04;;;;;;;5.55;1.60;;;;;;;22.33;61.38;100313.50;5054094;28;20032;-81
2022/08/29 06:54:33;;;;;;;3.50;1.40;;;;;;;22.51;60.73;100331.06;5054016;28;20104;-81
2022/08/29 06:56:58;;;;;;;4.03;1.50;;;;;;;22.74;58.56;100301.25;5052414;28;20025;-81
2022/08/29 06:59:25;;;;;;;4.13;1.40;;;;;;;23.23;56.64;100315.38;5053105;28;20120;-81
2022/08/29 07:01:50;;;;;;;5.30;1.80;;;;;;;23.88;56.34;100317.34;5057057;28;20060;-80
2022/08/29 07:04:16;;;;;;;5.30;1.70;;;;;;;24.22;53.31;100332.59;5072241;28;20415;-81
2022/08/29 07:06:41;;;;;;;3.05;1.40;;;;;;;24.61;53.25;100329.25;5072132;28;20500;-82
2022/08/29 07:09:07;;;;;;;3.88;1.65;;;;;;;24.71;51.04;100335.66;5073692;28;20027;-82
2022/08/29 07:11:33;;;;;;;5.47;1.85;;;;;;;24.82;51.76;100316.56;5073826;28;20037;-81
2022/08/29 07:14:00;;;;;;;5.25;1.40;;;;;;;25.01;51.00;100326.72;5068231;28;20103;-81
2022/08/29 07:16:27;;;;;;;5.75;1.65;;;;;;;25.55;51.78;100320.00;5073631;28;20379;-80
2022/08/29 07:18:53;;;;;;;8.40;1.90;;;;;;;25.93;50.17;100322.84;5071803;28;20035;-81
2022/08/29 07:21:21;;;;;;;5.45;1.50;;;;;;;26.01;48.63;100324.91;5071941;28;20464;-82
2022/08/29 07:23:52;;;;;;;4.32;1.35;;;;;;;26.06;48.56;100316.31;5071991;28;20052;-81
2022/08/29 07:26:22;;;;;;;3.70;1.30;;;;;;;26.09;50.01;100319.63;5071499;28;20024;-81
2022/08/29 07:28:50;;;;;;;6.75;1.92;;;;;;;26.28;48.85;100332.41;5072598;28;20035;-82
2022/08/29 07:31:16;;;;;;;4.30;1.60;;;;;;;26.71;48.58;100327.44;5070838;28;20032;-82
2022/08/29 07:33:41;;;;;;;5.70;1.42;;;;;;;26.79;48.52;100316.66;5065906;28;20029;-81
2022/08/29 07:36:07;;;;;;;4.13;1.77;;;;;;;25.88;48.08;100308.78;5070857;28;20052;-81
2022/08/29 07:38:33;;;;;;;6.97;1.80;;;;;;;25.94;48.49;100318.25;5070368;28;20023;-82
2022/08/29 07:41:08;;;;;;;5.60;1.55;;;;;;;25.96;49.23;100325.28;5062687;28;20116;-82
2022/08/29 07:43:34;;;;;;;6.35;1.88;;;;;;;26.12;46.81;100335.69;5057295;28;20480;-82
2022/08/29 07:46:08;;;;;;;4.53;1.50;;;;;;;26.46;47.55;100319.78;5071496;28;20144;-82
2022/08/29 07:48:34;;;;;;;6.82;2.05;;;;;;;26.58;47.91;100318.66;5069552;28;20555;-82
2022/08/29 07:50:59;;;;;;;4.00;1.60;;;;;;;26.48;46.00;100323.25;5072146;28;20111;-81
2022/08/29 07:53:24;;;;;;;4.97;1.85;;;;;;;26.48;47.94;100315.06;5071772;28;20395;-81
2022/08/29 07:55:51;;;;;;;6.43;2.10;;;;;;;26.34;48.00;100315.50;5067583;28;20622;-82
2022/08/29 07:58:17;;;;;;;5.20;1.77;;;;;;;26.48;47.76;100306.88;5057457;28;20070;-81
2022/08/29 08:00:42;;;;;;;7.10;1.80;;;;;;;26.75;46.90;100321.56;5059560;28;20024;-82
2022/08/29 08:03:09;;;;;;;8.82;1.65;;;;;;;27.32;47.62;100317.88;5056314;28;20034;-82
2022/08/29 08:05:35;;;;;;;6.63;1.77;;;;;;;27.73;45.15;100314.69;5072055;28;20051;-82
2022/08/29 08:08:01;;;;;;;4.75;1.70;;;;;;;28.18;43.84;100322.94;5072424;28;20032;-80
2022/08/29 08:10:26;;;;;;;4.00;1.38;;;;;;;28.64;43.44;100332.84;5067916;28;20021;-83
2022/08/29 08:12:52;;;;;;;5.25;1.65;;;;;;;28.76;43.29;100334.34;5071050;28;20031;-82
2022/08/29 08:15:18;;;;;;;11.73;2.15;;;;;;;29.00;43.25;100329.03;5055455;28;20400;-82
2022/08/29 08:17:43;;;;;;;5.88;1.70;;;;;;;29.33;42.88;100347.47;5067185;28;20037;-83
2022/08/29 08:20:10;;;;;;;7.32;2.33;;;;;;;29.21;41.86;100329.59;5071374;28;20121;-83
2022/08/29 08:22:36;;;;;;;3.80;1.50;;;;;;;29.07;42.11;100328.25;5065535;28;20036;-83
2022/08/29 08:25:04;;;;;;;5.20;1.98;;;;;;;28.99;42.11;100352.00;5070655;28;20024;-82
2022/08/29 08:27:30;;;;;;;3.92;1.98;;;;;;;29.08;43.69;100340.09;5070762;28;20112;-82
2022/08/29 08:29:55;;;;;;;4.82;1.77;;;;;;;28.90;43.10;100339.22;5062635;28;20017;-82
2022/08/29 08:32:20;;;;;;;4.78;1.80;;;;;;;29.12;43.51;100339.63;5063188;28;20379;-82
2022/08/29 08:34:46;;;;;;;4.45;1.65;;;;;;;29.27;43.09;100342.66;5066344;28;20028;-83
2022/08/29 08:37:11;;;;;;;4.78;2.13;;;;;;;29.28;42.17;100333.38;5067023;28;20020;-82
2022/08/29 08:39:37;;;;;;;5.75;1.85;;;;;;;29.42;43.06;100350.09;5071318;28;20044;-83
2022/08/29 08:42:09;;;;;;;5.40;2.33;;;;;;;29.41;42.49;100350.25;5069635;28;20043;-83
2022/08/29 08:44:56;;;;;;;4.00;1.80;;;;;;;29.53;41.51;100351.72;5068653;28;20146;-83
2022/08/29 08:47:26;;;;;;;6.47;1.95;;;;;;;29.09;43.37;100350.91;5070621;28;20024;-82
2022/08/29 08:50:05;;;;;;;6.57;1.90;;;;;;;28.90;42.78;100344.72;5070788;28;20016;-83
2022/08/29 08:52:41;;;;;;;3.80;1.55;;;;;;;29.14;43.95;100347.69;5070696;28;20028;-82
2022/08/29 08:55:45;;;;;;;5.07;2.10;;;;;;;29.09;43.06;100347.31;5070547;28;20028;-83
2022/08/29 08:58:22;;;;;;;6.97;1.90;;;;;;;29.02;42.24;100343.44;5071551;28;20074;-83
2022/08/29 09:00:56;;;;;;;4.57;1.95;;;;;;;28.70;43.06;100340.44;5071045;28;20017;-83
2022/08/29 09:03:21;;;;;;;6.15;2.05;;;;;;;28.77;43.44;100352.47;5071065;28;20028;-84
2022/08/29 09:05:47;;;;;;;5.80;1.88;;;;;;;28.91;43.72;100349.19;5069963;28;20510;-83
2022/08/29 09:08:28;;;;;;;4.40;1.60;;;;;;;29.18;42.71;100341.72;5070174;28;20518;-82
2022/08/29 09:11:08;;;;;;;4.25;1.58;;;;;;;29.51;43.51;100318.13;5071692;28;20040;-83
2022/08/29 09:14:03;;;;;;;5.30;1.77;;;;;;;30.17;42.37;100348.44;5071644;28;20032;-83
2022/08/29 09:16:48;;;;;;;4.13;1.60;;;;;;;30.59;41.72;100339.13;5072004;28;20124;-83
2022/08/29 09:19:13;;;;;;;4.90;1.92;;;;;;;30.98;40.28;100338.50;5071574;28;20024;-83
2022/08/29 09:21:52;;;;;;;6.95;1.73;;;;;;;31.43;40.43;100341.59;5071415;28;20387;-83
2022/08/29 09:24:32;;;;;;;6.93;2.33;;;;;;;31.64;39.18;100331.72;5070475;28;20097;-83
2022/08/29 09:26:58;;;;;;;4.65;1.55;;;;;;;31.88;39.59;100339.91;5071910;28;20451;-83
2022/08/29 09:29:27;;;;;;;3.72;1.40;;;;;;;32.05;37.98;100346.22;5071607;28;20039;-83
2022/08/29 09:32:06;;;;;;;5.43;1.77;;;;;;;31.86;38.64;100341.97;5069969;28;20033;-82
2022/08/29 09:34:45;;;;;;;5.05;2.00;;;;;;;31.59;39.06;100338.78;5069662;28;20021;-83
2022/08/29 09:37:33;;;;;;;3.78;1.60;;;;;;;32.03;39.34;100343.63;5069299;28;20020;-83
2022/08/29 09:40:17;;;;;;;5.07;1.88;;;;;;;32.20;38.42;100329.78;5070838;28;20379;-83
2022/08/29 09:42:50;;;;;;;3.75;1.75;;;;;;;32.43;37.98;100327.97;5069415;28;20032;-84
2022/08/29 09:45:25;;;;;;;5.07;1.95;;;;;;;32.31;38.09;100338.50;5069370;28;20112;-82
2022/08/29 09:48:16;;;;;;;3.60;1.63;;;;;;;32.07;38.78;100328.50;5069646;28;20075;-83
2022/08/29 09:50:43;;;;;;;7.15;1.90;;;;;;;32.16;39.34;100309.19;5071133;28;20486;-83
2022/08/29 09:53:08;;;;;;;6.22;2.03;;;;;;;32.60;38.47;100318.56;5069360;28;20058;-82
2022/08/29 09:55:43;;;;;;;2.90;1.48;;;;;;;32.81;38.36;100322.34;5070371;28;20036;-83
2022/08/29 09:58:15;;;;;;;4.90;1.65;;;;;;;33.08;37.83;100321.78;5069660;28;20074;-84
2022/08/29 10:00:59;;;;;;;4.05;1.55;;;;;;;33.18;37.46;100308.59;5066478;28;20379;-83
2022/08/29 10:03:25;;;;;;;4.85;1.70;;;;;;;33.14;37.00;100321.06;5069536;28;20033;-83
2022/08/29 10:06:18;;;;;;;6.63;1.77;;;;;;;33.38;37.53;100316.34;5072095;28;20094;-83
2022/08/29 10:09:00;;;;;;;4.70;1.70;;;;;;;33.33;38.13;100317.75;5066833;28;20025;-83
2022/08/29 10:11:33;;;;;;;5.80;1.63;;;;;;;33.48;36.67;100314.19;5053743;28;20048;-82
2022/08/29 10:14:05;;;;;;;4.13;1.48;;;;;;;33.42;36.72;100318.56;5053829;28;20376;-82
2022/08/29 10:16:49;;;;;;;5.60;1.60;;;;;;;33.63;36.48;100301.22;5054734;28;20373;-83
2022/08/29 10:19:21;;;;;;;5.70;1.70;;;;;;;33.60;36.68;100307.13;5053281;28;20035;-82
2022/08/29 10:22:19;;;;;;;4.00;2.13;;;;;;;33.59;36.91;100316.47;5053162;28;20029;-83
2022/08/29 10:25:05;;;;;;;5.47;2.30;;;;;;;33.55;36.32;100309.59;5063710;28;20690;-82
2022/08/29 10:28:02;;;;;;;4.72;2.08;;;;;;;33.62;36.67;100321.59;5074194;28;20021;-82
2022/08/29 10:30:48;;;;;;;4.28;2.00;;;;;;;33.68;37.90;100320.84;5028734;28;20040;-83
2022/08/29 10:33:53;;;;;;;4.47;2.00;;;;;;;33.74;36.64;100323.69;5073360;28;20024;-82
2022/08/29 10:36:32;;;;;;;4.72;1.65;;;;;;;33.71;36.78;100312.19;5062144;28;20021;-83
2022/08/29 10:39:23;;;;;;;6.38;1.67;;;;;;;34.01;36.98;100305.59;5069536;28;20039;-83
2022/08/29 10:42:11;;;;;;;5.32;1.90;;;;;;;34.22;35.49;100311.19;5074715;28;20483;-82
2022/08/29 10:45:04;;;;;;;4.88;1.92;;;;;;;34.29;35.96;100309.34;5069882;28;20090;-83
2022/08/29 10:47:33;;;;;;;;;;;;;;;34.23;36.68;100301.84;5072958;28;20028;-83
2022/08/29 10:50:29;;;;;;;6.93;2.80;;;;;;;34.65;35.92;100301.09;5073977;28;19999;-83
2022/08/29 10:53:13;;;;;;;4.70;1.90;;;;;;;34.74;36.13;100297.97;5071179;28;20028;-82
2022/08/29 10:55:47;;;;;;;5.82;2.25;;;;;;;35.11;35.71;100292.16;5052096;28;20135;-82
2022/08/29 10:58:47;;;;;;;4.63;1.65;;;;;;;35.22;35.34;100294.41;5053490;28;20087;-82
2022/08/29 11:01:34;;;;;;;3.55;1.42;;;;;;;35.03;34.95;100285.91;5052440;28;20029;-82
2022/08/29 11:04:16;;;;;;;6.78;2.28;;;;;;;34.92;35.73;100292.88;5072552;28;20079;-83
2022/08/29 11:06:54;;;;;;;7.22;1.58;;;;;;;34.96;36.46;100280.31;5071768;28;20049;-83
2022/08/29 11:09:36;;;;;;;5.55;1.60;;;;;;;35.40;35.16;100277.31;5073990;28;20025;-83
2022/08/29 11:12:16;;;;;;;3.63;1.90;;;;;;;35.20;35.49;100263.31;5073712;28;20031;-83
2022/08/29 11:14:55;;;;;;;5.78;2.13;;;;;;;34.95;36.21;100272.25;5073920;28;20031;-84
2022/08/29 11:17:25;;;;;;;7.03;2.28;;;;;;;34.85;35.36;100261.50;5071593;28;20032;-83
2022/08/29 11:20:08;;;;;;;6.18;1.98;;;;;;;34.84;36.42;100251.50;5072198;28;20087;-84
2022/08/29 11:22:49;;;;;;;7.65;2.13;;;;;;;34.94;35.75;100260.34;5071871;28;20029;-83
2022/08/29 11:25:17;;;;;;;4.15;1.75;;;;;;;35.00;36.46;100258.66;5071813;28;20029;-83
2022/08/29 11:27:56;;;;;;;4.57;1.95;;;;;;;34.99;35.44;100256.97;5071968;28;20476;-82
2022/08/29 11:30:47;;;;;;;6.82;1.90;;;;;;;35.00;35.45;100253.13;5072201;28;20115;-82
2022/08/29 11:33:34;;;;;;;6.53;2.15;;;;;;;35.14;35.30;100253.03;5073782;28;20024;-82
2022/08/29 11:36:21;;;;;;;6.10;2.00;;;;;;;35.32;35.42;100250.59;5073812;28;20503;-82
2022/08/29 11:39:12;;;;;;;5.07;2.10;;;;;;;35.34;34.33;100250.41;5072189;28;20024;-83
2022/08/29 11:41:44;;;;;;;5.25;2.30;;;;;;;35.35;35.57;100230.84;5072247;28;20479;-83
2022/08/29 11:44:34;;;;;;;6.22;2.17;;;;;;;35.61;36.23;100246.75;5072372;28;20059;-83